createdAt,value
2022-10-31T00:01:24.149Z,99.82
2022-10-31T00:03:51.303Z,99.79
2022-10-31T00:06:21.247Z,99.84
2022-10-31T00:09:03.154Z,99.82
2022-10-31T00:11:31.148Z,99.98
2022-10-31T00:14:00.151Z,100.00
2022-10-31T00:16:28.639Z,99.90
2022-10-31T00:18:58.993Z,99.98
2022-10-31T00:21:26.666Z,100.00
2022-10-31T00:23:54.206Z,99.84
2022-10-31T00:26:21.353Z,99.80
2022-10-31T00:28:49.573Z,99.70
2022-10-31T00:31:16.930Z,99.53
2022-10-31T00:33:45.241Z,99.83
2022-10-31T00:36:15.365Z,99.85
2022-10-31T00:38:43.332Z,100.00
2022-10-31T00:41:11.525Z,100.00
2022-10-31T00:43:42.363Z,100.00
2022-10-31T00:46:10.241Z,100.00
2022-10-31T00:48:37.524Z,100.00
2022-10-31T00:51:04.639Z,100.00
2022-10-31T00:53:31.884Z,100.00
2022-10-31T00:56:00.475Z,100.00
2022-10-31T00:58:28.116Z,99.96
2022-10-31T01:00:56.281Z,99.89
2022-10-31T01:03:29.664Z,100.00
2022-10-31T01:06:07.671Z,100.00
2022-10-31T01:08:36.616Z,100.00
2022-10-31T01:11:09.016Z,100.00
2022-10-31T01:13:36.722Z,100.00
2022-10-31T01:16:06.074Z,100.00
2022-10-31T01:18:34.412Z,100.00
2022-10-31T01:21:04.909Z,100.00
2022-10-31T01:23:32.959Z,100.00
2022-10-31T01:26:18.722Z,100.00
2022-10-31T01:28:54.646Z,100.00
2022-10-31T01:31:24.283Z,100.00
2022-10-31T01:33:51.568Z,100.00
2022-10-31T01:36:23.709Z,100.00
2022-10-31T01:38:56.406Z,100.00
2022-10-31T01:41:30.614Z,100.00
2022-10-31T01:44:03.697Z,100.00
2022-10-31T01:46:44.307Z,100.00
2022-10-31T01:49:18.070Z,100.00
2022-10-31T01:51:55.767Z,100.00
2022-10-31T01:54:26.430Z,100.00
2022-10-31T01:56:57.253Z,100.00
2022-10-31T01:59:28.677Z,100.00
2022-10-31T02:01:55.883Z,100.00
2022-10-31T02:04:26.120Z,100.00
2022-10-31T02:07:02.041Z,100.00
2022-10-31T02:09:32.220Z,100.00
2022-10-31T02:12:00.561Z,100.00
2022-10-31T02:14:31.622Z,100.00
2022-10-31T02:16:59.086Z,100.00
2022-10-31T02:19:41.954Z,100.00
2022-10-31T02:22:42.793Z,100.00
2022-10-31T02:25:54.659Z,100.00
2022-10-31T02:28:35.991Z,100.00
2022-10-31T02:31:22.059Z,100.00
2022-10-31T02:34:01.739Z,100.00
2022-10-31T02:36:31.548Z,100.00
2022-10-31T02:39:23.485Z,100.00
2022-10-31T02:42:05.193Z,100.00
2022-10-31T02:44:45.770Z,100.00
2022-10-31T02:47:29.183Z,100.00
2022-10-31T02:50:07.741Z,100.00
2022-10-31T02:52:36.538Z,100.00
2022-10-31T02:55:33.896Z,100.00
2022-10-31T02:58:08.309Z,100.00
2022-10-31T03:00:51.262Z,100.00
2022-10-31T03:03:47.121Z,100.00
2022-10-31T03:06:30.357Z,100.00
2022-10-31T03:09:20.362Z,100.00
2022-10-31T03:11:58.923Z,100.00
2022-10-31T03:14:40.491Z,100.00
2022-10-31T03:17:13.919Z,100.00
2022-10-31T03:19:45.030Z,100.00
2022-10-31T03:22:30.803Z,100.00
2022-10-31T03:25:02.575Z,100.00
2022-10-31T03:27:34.652Z,100.00
2022-10-31T03:30:08.781Z,100.00
2022-10-31T03:32:55.724Z,100.00
2022-10-31T03:35:25.718Z,100.00
2022-10-31T03:37:55.167Z,100.00
2022-10-31T03:40:27.108Z,100.00
2022-10-31T03:43:02.294Z,100.00
2022-10-31T03:45:31.793Z,100.00
2022-10-31T03:48:02.380Z,100.00
2022-10-31T03:50:39.936Z,100.00
2022-10-31T03:53:20.512Z,100.00
2022-10-31T03:55:57.043Z,100.00
2022-10-31T03:58:29.771Z,100.00
2022-10-31T04:00:59.853Z,100.00
2022-10-31T04:03:31.167Z,100.00
2022-10-31T04:06:07.360Z,100.00
2022-10-31T04:08:41.599Z,100.00
2022-10-31T04:11:12.770Z,100.00
2022-10-31T04:13:45.388Z,100.00
2022-10-31T04:16:17.632Z,100.00
2022-10-31T04:18:45.288Z,100.00
2022-10-31T04:21:12.529Z,100.00
2022-10-31T04:23:39.666Z,100.00
2022-10-31T04:26:17.189Z,100.00
2022-10-31T04:28:44.766Z,100.00
2022-10-31T04:31:14.170Z,99.88
2022-10-31T04:33:43.093Z,99.99
2022-10-31T04:36:10.532Z,99.81
2022-10-31T04:38:38.215Z,99.96
2022-10-31T04:41:14.268Z,100.00
2022-10-31T04:43:58.617Z,99.82
2022-10-31T04:46:27.813Z,99.82
2022-10-31T04:48:56.620Z,99.96
2022-10-31T04:51:24.943Z,100.00
2022-10-31T04:53:52.464Z,99.85
2022-10-31T04:56:28.610Z,99.85
2022-10-31T04:59:01.056Z,99.92
2022-10-31T05:01:34.035Z,99.92
2022-10-31T05:04:01.895Z,99.79
2022-10-31T05:06:29.828Z,99.42
2022-10-31T05:08:57.936Z,99.19
2022-10-31T05:11:25.276Z,99.43
2022-10-31T05:13:53.944Z,99.72
2022-10-31T05:16:46.784Z,99.63
2022-10-31T05:19:45.695Z,99.68
2022-10-31T05:22:46.686Z,99.71
2022-10-31T05:25:14.181Z,99.33
2022-10-31T05:27:43.111Z,99.54
2022-10-31T05:30:12.671Z,99.24
2022-10-31T05:32:44.324Z,99.43
2022-10-31T05:35:32.904Z,99.22
2022-10-31T05:38:28.312Z,99.10
2022-10-31T05:41:01.004Z,99.24
2022-10-31T05:43:30.236Z,99.05
2022-10-31T05:45:58.041Z,98.82
2022-10-31T05:48:44.036Z,98.90
2022-10-31T05:51:29.336Z,98.34
2022-10-31T05:53:57.004Z,98.45
2022-10-31T05:56:25.186Z,97.87
2022-10-31T05:58:52.325Z,97.84
2022-10-31T06:01:19.270Z,97.59
2022-10-31T06:03:46.983Z,97.56
2022-10-31T06:06:16.458Z,97.31
2022-10-31T06:08:43.546Z,97.36
2022-10-31T06:11:20.333Z,96.71
2022-10-31T06:14:10.597Z,96.41
2022-10-31T06:16:49.843Z,96.02
2022-10-31T06:19:35.629Z,97.02
2022-10-31T06:22:02.976Z,96.81
2022-10-31T06:24:30.589Z,96.48
2022-10-31T06:27:07.684Z,96.70
2022-10-31T06:29:34.759Z,96.83
2022-10-31T06:32:06.897Z,97.52
2022-10-31T06:34:40.241Z,98.21
2022-10-31T06:37:09.415Z,98.20
2022-10-31T06:39:38.230Z,97.95
2022-10-31T06:42:06.148Z,98.37
2022-10-31T06:44:34.082Z,98.79
2022-10-31T06:47:23.766Z,98.85
2022-10-31T06:50:07.401Z,99.28
2022-10-31T06:52:35.341Z,99.82
2022-10-31T06:55:03.586Z,100.00
2022-10-31T06:57:31.476Z,100.00
2022-10-31T06:59:58.918Z,99.65
2022-10-31T07:02:36.417Z,100.00
2022-10-31T07:05:05.711Z,100.00
2022-10-31T07:07:33.691Z,100.00
2022-10-31T07:10:01.501Z,100.00
2022-10-31T07:12:54.637Z,99.65
2022-10-31T07:15:22.203Z,99.44
2022-10-31T07:17:49.324Z,99.25
2022-10-31T07:20:16.761Z,99.24
2022-10-31T07:22:46.805Z,98.96
2022-10-31T07:25:16.989Z,99.10
2022-10-31T07:28:22.498Z,98.91
2022-10-31T07:30:53.989Z,98.88
2022-10-31T07:33:22.172Z,99.60
2022-10-31T07:36:08.076Z,99.81
2022-10-31T07:38:34.983Z,99.64
2022-10-31T07:41:05.135Z,99.51
2022-10-31T07:43:37.988Z,99.45
2022-10-31T07:46:16.805Z,99.47
2022-10-31T07:49:07.875Z,99.78
2022-10-31T07:51:53.713Z,99.79
2022-10-31T07:54:40.742Z,100.00
2022-10-31T07:57:10.251Z,100.00
2022-10-31T07:59:38.709Z,100.00
2022-10-31T08:02:09.361Z,100.00
2022-10-31T08:04:49.040Z,100.00
2022-10-31T08:07:38.324Z,99.56
2022-10-31T08:10:08.051Z,99.44
2022-10-31T08:12:36.066Z,99.59
2022-10-31T08:15:07.534Z,99.68
2022-10-31T08:17:39.408Z,100.00
2022-10-31T08:20:08.319Z,100.00
2022-10-31T08:22:43.889Z,98.98
2022-10-31T08:25:11.544Z,99.25
2022-10-31T08:27:40.499Z,99.25
2022-10-31T08:30:13.407Z,99.41
2022-10-31T08:32:48.172Z,99.96
2022-10-31T08:35:34.520Z,100.00
2022-10-31T08:38:34.322Z,100.00
2022-10-31T08:41:04.037Z,99.98
2022-10-31T08:43:31.134Z,100.00
2022-10-31T08:45:58.104Z,99.87
2022-10-31T08:48:30.336Z,99.36
2022-10-31T08:50:59.271Z,98.66
2022-10-31T08:53:27.475Z,98.90
2022-10-31T08:56:11.335Z,99.31
2022-10-31T08:58:40.331Z,99.26
2022-10-31T09:01:09.559Z,99.02
2022-10-31T09:03:36.735Z,99.53
2022-10-31T09:06:04.315Z,100.00
2022-10-31T09:08:32.471Z,99.99
2022-10-31T09:11:01.656Z,99.13
2022-10-31T09:13:47.209Z,98.86
2022-10-31T09:16:43.580Z,98.66
2022-10-31T09:19:17.591Z,98.60
2022-10-31T09:21:46.824Z,98.58
2022-10-31T09:24:13.931Z,98.93
2022-10-31T09:26:42.570Z,98.60
2022-10-31T09:29:27.966Z,97.84
2022-10-31T09:31:58.943Z,96.35
2022-10-31T09:34:30.372Z,96.60
2022-10-31T09:37:08.954Z,95.99
2022-10-31T09:39:36.265Z,95.04
2022-10-31T09:42:35.041Z,95.45
2022-10-31T09:45:23.696Z,95.55
2022-10-31T09:48:05.788Z,95.66
2022-10-31T09:51:05.739Z,95.83
2022-10-31T09:53:58.937Z,95.72
2022-10-31T09:56:28.615Z,94.81
2022-10-31T09:59:01.740Z,94.97
2022-10-31T10:01:40.873Z,94.85
2022-10-31T10:04:27.387Z,95.18
2022-10-31T10:07:23.310Z,94.98
2022-10-31T10:10:51.668Z,94.93
2022-10-31T10:13:47.433Z,94.09
2022-10-31T10:16:26.888Z,93.99
2022-10-31T10:19:03.087Z,94.22
2022-10-31T10:21:57.877Z,94.27
2022-10-31T10:24:58.290Z,93.96
2022-10-31T10:27:35.864Z,93.89
2022-10-31T10:30:16.158Z,93.54
2022-10-31T10:32:51.085Z,93.35
2022-10-31T10:35:32.056Z,93.04
2022-10-31T10:38:12.994Z,92.78
2022-10-31T10:40:41.236Z,92.46
2022-10-31T10:43:36.332Z,91.80
2022-10-31T10:46:32.730Z,91.74
2022-10-31T10:49:19.298Z,91.47
2022-10-31T10:55:26.197Z,89.24
2022-10-31T10:58:03.700Z,89.38
2022-10-31T11:00:33.572Z,88.92
2022-10-31T11:03:01.307Z,88.72
2022-10-31T11:05:43.391Z,87.95
2022-10-31T11:08:10.526Z,86.69
2022-10-31T11:10:38.016Z,86.88
2022-10-31T11:13:10.841Z,86.71
2022-10-31T11:15:50.607Z,86.25
2022-10-31T11:21:00.896Z,85.42
2022-10-31T11:23:29.741Z,85.11
2022-10-31T11:26:21.069Z,84.87
2022-10-31T11:28:59.652Z,84.94
2022-10-31T11:31:28.248Z,84.66
2022-10-31T11:34:04.456Z,84.29
2022-10-31T11:36:36.419Z,84.05
2022-10-31T11:39:06.626Z,83.10
2022-10-31T11:41:43.593Z,82.91
2022-10-31T11:44:30.077Z,82.78
2022-10-31T11:47:01.037Z,82.81
2022-10-31T11:49:46.512Z,82.38
2022-10-31T11:52:21.171Z,82.18
2022-10-31T11:54:50.789Z,82.10
2022-10-31T11:57:29.750Z,81.89
2022-10-31T11:59:59.576Z,82.03
2022-10-31T12:02:27.830Z,81.80
2022-10-31T12:05:33.909Z,82.00
2022-10-31T12:08:04.371Z,81.61
2022-10-31T12:10:43.348Z,81.47
2022-10-31T12:13:19.809Z,81.03
2022-10-31T12:15:55.164Z,80.34
2022-10-31T12:18:58.956Z,80.04
2022-10-31T12:21:26.514Z,80.07
2022-10-31T12:24:17.504Z,80.37
2022-10-31T12:27:26.929Z,80.15
2022-10-31T12:29:56.796Z,80.08
2022-10-31T12:32:33.406Z,80.10
2022-10-31T12:35:37.790Z,80.27
2022-10-31T12:38:16.916Z,80.35
2022-10-31T12:40:49.228Z,80.44
2022-10-31T12:43:38.483Z,80.67
2022-10-31T12:46:15.038Z,80.89
2022-10-31T12:48:48.038Z,81.09
2022-10-31T12:51:34.757Z,81.20
2022-10-31T12:54:04.822Z,81.37
2022-10-31T12:56:51.811Z,81.58
2022-10-31T12:59:25.149Z,81.71
2022-10-31T13:02:00.772Z,81.61
2022-10-31T13:04:45.226Z,81.77
2022-10-31T13:07:34.232Z,81.93
2022-10-31T13:10:18.735Z,82.14
2022-10-31T13:12:49.156Z,81.95
2022-10-31T13:15:22.689Z,82.25
2022-10-31T13:17:57.562Z,82.40
2022-10-31T13:20:31.670Z,82.75
2022-10-31T13:23:50.425Z,82.94
2022-10-31T13:26:44.791Z,83.14
2022-10-31T13:29:14.751Z,82.88
2022-10-31T13:31:43.221Z,83.28
2022-10-31T13:34:32.774Z,83.61
2022-10-31T13:37:27.438Z,83.85
2022-10-31T13:40:27.924Z,84.10
2022-10-31T13:43:16.841Z,84.36
2022-10-31T13:45:55.363Z,84.61
2022-10-31T13:48:28.517Z,84.71
2022-10-31T13:51:03.367Z,84.97
2022-10-31T13:53:56.559Z,85.27
2022-10-31T13:56:32.980Z,85.65
2022-10-31T13:59:20.559Z,86.00
2022-10-31T14:01:52.707Z,86.67
2022-10-31T14:04:25.577Z,87.02
2022-10-31T14:07:12.005Z,87.77
2022-10-31T14:09:55.673Z,88.20
2022-10-31T14:12:30.654Z,88.97
2022-10-31T14:15:06.716Z,89.39
2022-10-31T14:17:53.733Z,89.87
2022-10-31T14:20:40.789Z,90.40
2022-10-31T14:23:29.358Z,91.16
2022-10-31T14:26:18.109Z,91.46
2022-10-31T14:28:46.509Z,91.87
2022-10-31T14:31:33.704Z,92.13
2022-10-31T14:34:03.231Z,92.48
2022-10-31T14:36:57.538Z,92.78
2022-10-31T14:39:41.315Z,93.11
2022-10-31T14:42:36.023Z,93.29
2022-10-31T14:45:18.213Z,93.58
2022-10-31T14:48:08.075Z,93.68
2022-10-31T14:50:41.516Z,94.17
2022-10-31T14:53:15.537Z,94.57
2022-10-31T14:55:49.561Z,94.89
2022-10-31T14:58:22.617Z,95.13
2022-10-31T15:00:55.142Z,95.34
2022-10-31T15:03:29.909Z,95.89
2022-10-31T15:06:01.080Z,96.15
2022-10-31T15:08:48.158Z,96.45
2022-10-31T15:11:28.717Z,97.02
2022-10-31T15:13:58.434Z,97.24
2022-10-31T15:19:13.234Z,97.67
2022-10-31T15:21:45.874Z,98.19
2022-10-31T15:24:20.216Z,98.28
2022-10-31T15:26:54.106Z,98.60
2022-10-31T15:29:24.653Z,98.87
2022-10-31T15:31:55.689Z,99.08
2022-10-31T15:34:35.188Z,99.22
2022-10-31T15:37:02.198Z,99.21
2022-10-31T15:39:30.083Z,99.40
2022-10-31T15:42:00.673Z,99.66
2022-10-31T15:44:31.195Z,100.00
2022-10-31T15:47:17.252Z,100.00
2022-10-31T15:49:51.173Z,100.00
2022-10-31T15:52:32.851Z,100.00
2022-10-31T15:55:04.152Z,100.00
2022-10-31T15:57:32.089Z,100.00
2022-10-31T15:59:59.631Z,100.00
2022-10-31T16:02:28.496Z,100.00
2022-10-31T16:04:58.009Z,100.00
2022-10-31T16:07:25.970Z,100.00
2022-10-31T16:09:56.854Z,100.00
2022-10-31T16:12:25.953Z,100.00
2022-10-31T16:14:55.256Z,100.00
2022-10-31T16:17:25.440Z,100.00
2022-10-31T16:19:58.146Z,100.00
2022-10-31T16:22:36.577Z,100.00
2022-10-31T16:25:09.363Z,100.00
2022-10-31T16:27:38.288Z,100.00
2022-10-31T16:30:28.794Z,100.00
2022-10-31T16:33:02.373Z,100.00
2022-10-31T16:35:39.841Z,100.00
2022-10-31T16:38:10.420Z,100.00
2022-10-31T16:40:39.784Z,100.00
2022-10-31T16:43:12.107Z,100.00
2022-10-31T16:45:48.194Z,100.00
2022-10-31T16:48:21.802Z,100.00
2022-10-31T16:50:50.699Z,100.00
2022-10-31T16:53:18.584Z,100.00
2022-10-31T16:56:00.221Z,100.00
2022-10-31T16:58:31.736Z,100.00
2022-10-31T17:00:59.622Z,100.00
2022-10-31T17:03:27.232Z,100.00
2022-10-31T17:05:56.543Z,100.00
2022-10-31T17:08:24.882Z,100.00
2022-10-31T17:10:54.741Z,100.00
2022-10-31T17:13:25.246Z,100.00
2022-10-31T17:15:55.355Z,100.00
2022-10-31T17:18:27.373Z,100.00
2022-10-31T17:21:00.229Z,100.00
2022-10-31T17:23:28.503Z,100.00
2022-10-31T17:25:56.635Z,100.00
2022-10-31T17:28:26.501Z,100.00
2022-10-31T17:30:59.358Z,100.00
2022-10-31T17:33:26.811Z,100.00
2022-10-31T17:35:54.151Z,100.00
2022-10-31T17:38:21.024Z,100.00
2022-10-31T17:43:20.116Z,100.00
2022-10-31T17:45:47.448Z,100.00
2022-10-31T17:48:14.411Z,100.00
2022-10-31T17:50:41.818Z,100.00
2022-10-31T17:53:08.732Z,100.00
2022-10-31T17:55:37.360Z,100.00
2022-10-31T17:58:05.802Z,100.00
2022-10-31T18:00:33.407Z,100.00
2022-10-31T18:03:03.695Z,100.00
2022-10-31T18:05:32.726Z,100.00
2022-10-31T18:08:03.764Z,100.00
2022-10-31T18:10:32.241Z,100.00
2022-10-31T18:12:59.469Z,100.00
2022-10-31T18:15:26.853Z,100.00
2022-10-31T18:17:53.772Z,100.00
2022-10-31T18:20:20.836Z,100.00
2022-10-31T18:22:47.698Z,100.00
2022-10-31T18:25:14.908Z,100.00
2022-10-31T18:27:41.888Z,100.00
2022-10-31T18:30:09.794Z,100.00
2022-10-31T18:32:36.831Z,100.00
2022-10-31T18:35:04.193Z,100.00
2022-10-31T18:37:31.058Z,100.00
2022-10-31T18:39:58.118Z,100.00
2022-10-31T18:42:25.012Z,100.00
2022-10-31T18:44:52.035Z,100.00
2022-10-31T18:47:19.421Z,100.00
2022-10-31T18:49:46.732Z,100.00
2022-10-31T18:52:13.614Z,100.00
2022-10-31T18:54:40.746Z,100.00
2022-10-31T18:57:07.606Z,100.00
2022-10-31T18:59:34.654Z,100.00
2022-10-31T19:02:01.603Z,100.00
2022-10-31T19:04:28.802Z,100.00
2022-10-31T19:06:56.233Z,100.00
2022-10-31T19:09:24.316Z,100.00
2022-10-31T19:11:51.249Z,100.00
2022-10-31T19:14:18.491Z,100.00
2022-10-31T19:16:45.354Z,100.00
2022-10-31T19:19:12.764Z,100.00
2022-10-31T19:21:39.673Z,100.00
2022-10-31T19:24:06.889Z,100.00
2022-10-31T19:26:35.182Z,100.00
2022-10-31T19:29:02.832Z,100.00
2022-10-31T19:31:29.796Z,100.00
2022-10-31T19:33:56.993Z,100.00
2022-10-31T19:36:24.805Z,100.00
2022-10-31T19:38:53.277Z,100.00
2022-10-31T19:41:26.203Z,100.00
2022-10-31T19:43:54.087Z,100.00
2022-10-31T19:46:40.481Z,100.00
2022-10-31T19:49:11.544Z,100.00
2022-10-31T19:51:38.800Z,100.00
2022-10-31T19:54:06.416Z,100.00
2022-10-31T19:56:33.574Z,100.00
2022-10-31T19:59:00.825Z,100.00
2022-10-31T20:01:27.763Z,100.00
2022-10-31T20:03:55.168Z,100.00
2022-10-31T20:06:29.788Z,100.00
2022-10-31T20:08:57.616Z,100.00
2022-10-31T20:11:26.779Z,100.00
2022-10-31T20:13:58.512Z,100.00
2022-10-31T20:16:26.199Z,100.00
2022-10-31T20:18:53.383Z,100.00
2022-10-31T20:21:26.536Z,100.00
2022-10-31T20:24:02.024Z,100.00
2022-10-31T20:26:32.419Z,100.00
2022-10-31T20:29:00.944Z,100.00
2022-10-31T20:31:31.002Z,100.00
2022-10-31T20:33:58.049Z,100.00
2022-10-31T20:36:25.409Z,100.00
2022-10-31T20:38:53.029Z,100.00
2022-10-31T20:41:20.082Z,100.00
2022-10-31T20:43:47.806Z,100.00
2022-10-31T20:46:26.520Z,100.00
2022-10-31T20:48:54.354Z,100.00
2022-10-31T20:51:24.848Z,100.00
2022-10-31T20:53:53.575Z,100.00
2022-10-31T20:56:22.745Z,100.00
2022-10-31T20:58:50.388Z,100.00
2022-10-31T21:01:22.662Z,100.00
2022-10-31T21:03:50.609Z,100.00
2022-10-31T21:06:19.431Z,100.00
2022-10-31T21:08:47.357Z,100.00
2022-10-31T21:11:16.679Z,100.00
2022-10-31T21:13:46.315Z,100.00
2022-10-31T21:16:16.660Z,100.00
2022-10-31T21:18:45.515Z,100.00
2022-10-31T21:21:15.668Z,100.00
2022-10-31T21:23:45.655Z,100.00
2022-10-31T21:26:18.458Z,100.00
2022-10-31T21:28:45.570Z,100.00
2022-10-31T21:31:16.656Z,100.00
2022-10-31T21:33:45.441Z,100.00
2022-10-31T21:36:12.658Z,100.00
2022-10-31T21:38:40.435Z,100.00
2022-10-31T21:41:11.429Z,100.00
2022-10-31T21:43:43.791Z,100.00
2022-10-31T21:46:15.272Z,100.00
2022-10-31T21:48:43.575Z,100.00
2022-10-31T21:51:16.226Z,100.00
2022-10-31T21:54:02.151Z,100.00
2022-10-31T21:56:29.366Z,100.00
2022-10-31T21:58:56.668Z,100.00
2022-10-31T22:01:25.873Z,100.00
2022-10-31T22:03:53.117Z,100.00
2022-10-31T22:06:20.470Z,100.00
2022-10-31T22:08:48.126Z,100.00
2022-10-31T22:11:17.063Z,100.00
2022-10-31T22:13:47.227Z,100.00
2022-10-31T22:16:16.866Z,100.00
2022-10-31T22:18:44.611Z,100.00
2022-10-31T22:21:19.371Z,100.00
2022-10-31T22:23:55.116Z,100.00
2022-10-31T22:26:22.831Z,100.00
2022-10-31T22:28:59.427Z,100.00
2022-10-31T22:31:27.716Z,100.00
2022-10-31T22:33:55.963Z,100.00
2022-10-31T22:36:25.943Z,100.00
2022-10-31T22:38:53.375Z,100.00
2022-10-31T22:41:23.228Z,100.00
2022-10-31T22:43:50.350Z,100.00
2022-10-31T22:46:25.859Z,100.00
2022-10-31T22:48:59.016Z,100.00
2022-10-31T22:51:29.081Z,100.00
2022-10-31T22:53:56.828Z,100.00
2022-10-31T22:56:26.903Z,100.00
2022-10-31T22:58:54.028Z,100.00
2022-10-31T23:01:23.959Z,100.00
2022-10-31T23:03:51.348Z,100.00
2022-10-31T23:06:20.866Z,100.00
2022-10-31T23:08:49.178Z,100.00
2022-10-31T23:11:24.728Z,100.00
2022-10-31T23:14:09.510Z,100.00
2022-10-31T23:16:50.646Z,100.00
2022-10-31T23:19:29.129Z,100.00
2022-10-31T23:22:04.006Z,100.00
2022-10-31T23:24:38.259Z,100.00
2022-10-31T23:27:21.577Z,100.00
2022-10-31T23:29:51.426Z,100.00
2022-10-31T23:32:20.480Z,100.00
2022-10-31T23:34:50.518Z,100.00
2022-10-31T23:37:20.954Z,100.00
2022-10-31T23:39:48.760Z,100.00
2022-10-31T23:42:16.501Z,100.00
2022-10-31T23:44:43.372Z,100.00
2022-10-31T23:47:11.176Z,100.00
2022-10-31T23:49:38.154Z,100.00
2022-10-31T23:52:06.103Z,100.00
2022-10-31T23:54:33.384Z,100.00
2022-10-31T23:57:00.717Z,100.00
2022-10-31T23:59:29.448Z,100.00
